Time;durP1;ratioP1;P1;durP2;ratioP2;P2;SDS_P1;SDS_P2;PMS_P1;PMS_P2;Temp;Humidity;BMP_temperature;BMP_pressure;BME280_temperature;BME280_humidity;BME280_pressure;Samples;Min_cycle;Max_cycle;Signal;HPM_P1;HPM_P2
2024/03/15 00:02:20;;;;;;;15.38;10.23;;;;;;;6.19;100.00;92528.91;6301636;22;20007;-76
2024/03/15 00:04:45;;;;;;;18.17;10.50;;;;;;;6.20;100.00;92533.09;6301858;22;20428;-75
2024/03/15 00:07:11;;;;;;;17.23;10.20;;;;;;;6.19;100.00;92531.50;6302298;22;20222;-76
2024/03/15 00:09:37;;;;;;;16.60;11.00;;;;;;;6.20;100.00;92527.88;6301714;22;20011;-75
2024/03/15 00:12:03;;;;;;;16.60;11.27;;;;;;;6.19;100.00;92526.31;6274254;22;20007;-74
2024/03/15 00:14:28;;;;;;;17.75;10.90;;;;;;;6.18;100.00;92529.97;6274427;22;20099;-75
2024/03/15 00:16:55;;;;;;;17.70;11.02;;;;;;;6.17;100.00;92528.38;6301204;22;20006;-75
2024/03/15 00:19:21;;;;;;;18.20;11.45;;;;;;;6.16;100.00;92530.19;6300760;22;20080;-76
2024/03/15 00:21:47;;;;;;;19.08;11.68;;;;;;;6.16;100.00;92529.44;6300958;22;20417;-75
2024/03/15 00:24:16;;;;;;;17.77;11.02;;;;;;;6.14;100.00;92529.69;6301015;22;20026;-76
2024/03/15 00:26:47;;;;;;;20.30;11.70;;;;;;;6.14;100.00;92523.72;6301037;22;20479;-76
2024/03/15 00:29:13;;;;;;;19.88;11.25;;;;;;;6.14;100.00;92528.91;6275178;22;20018;-75
2024/03/15 00:31:39;;;;;;;18.75;10.65;;;;;;;6.13;100.00;92527.34;6301822;22;20004;-75
2024/03/15 00:34:08;;;;;;;18.20;10.35;;;;;;;6.15;100.00;92526.06;6301548;22;20015;-75
2024/03/15 00:36:35;;;;;;;18.20;10.45;;;;;;;6.14;100.00;92529.69;6301174;22;20309;-76
2024/03/15 00:39:02;;;;;;;15.63;10.05;;;;;;;6.12;100.00;92523.19;6301418;22;20011;-76
2024/03/15 00:41:27;;;;;;;15.13;9.20;;;;;;;6.10;100.00;92526.03;6274551;22;19996;-74
2024/03/15 00:43:53;;;;;;;15.07;9.55;;;;;;;6.11;100.00;92517.22;6301278;22;20068;-75
2024/03/15 00:46:22;;;;;;;14.27;9.38;;;;;;;6.09;100.00;92515.91;6301288;22;20460;-74
2024/03/15 00:48:48;;;;;;;14.52;9.52;;;;;;;6.08;100.00;92517.72;6274340;22;20488;-75
2024/03/15 00:51:14;;;;;;;17.02;10.00;;;;;;;6.07;100.00;92515.38;6301710;22;20006;-76
2024/03/15 00:53:41;;;;;;;18.52;9.48;;;;;;;6.05;100.00;92518.22;6301698;22;20047;-75
2024/03/15 00:56:08;;;;;;;17.02;10.50;;;;;;;6.02;100.00;92511.72;6301471;22;20068;-76
2024/03/15 00:58:34;;;;;;;24.13;10.55;;;;;;;5.99;100.00;92514.84;6301244;22;20042;-76
2024/03/15 01:01:01;;;;;;;15.40;10.35;;;;;;;5.99;100.00;92512.25;6302473;22;20274;-76
2024/03/15 01:03:30;;;;;;;16.13;10.38;;;;;;;5.97;100.00;92503.16;6303062;22;20011;-75
2024/03/15 01:05:55;;;;;;;16.88;10.60;;;;;;;5.98;100.00;92507.31;6301320;22;20078;-76
2024/03/15 01:08:21;;;;;;;16.95;11.13;;;;;;;5.97;100.00;92505.75;6301759;22;20086;-76
2024/03/15 01:10:47;;;;;;;20.88;11.48;;;;;;;5.97;100.00;92497.97;6301206;22;20049;-75
2024/03/15 01:13:13;;;;;;;17.40;10.50;;;;;;;5.97;100.00;92497.97;6301762;22;20090;-76
2024/03/15 01:15:39;;;;;;;15.70;11.07;;;;;;;5.95;100.00;92500.81;6248886;22;20029;-75
2024/03/15 01:18:05;;;;;;;18.65;10.27;;;;;;;5.94;100.00;92488.03;6303020;22;20011;-75
2024/03/15 01:20:32;;;;;;;14.65;9.60;;;;;;;5.93;100.00;92487.25;6302634;22;20098;-76
2024/03/15 01:22:58;;;;;;;15.18;9.80;;;;;;;5.93;100.00;92495.06;6302884;22;20513;-76
2024/03/15 01:25:23;;;;;;;18.35;10.93;;;;;;;5.94;100.00;92486.22;6303006;22;20015;-76
2024/03/15 01:27:49;;;;;;;15.00;10.07;;;;;;;5.95;100.00;92484.44;6303563;22;20053;-75
2024/03/15 01:30:14;;;;;;;17.60;10.30;;;;;;;5.95;100.00;92480.03;6302670;22;20003;-73
2024/03/15 01:32:40;;;;;;;16.25;9.90;;;;;;;5.95;100.00;92474.81;6303246;22;20019;-76
2024/03/15 01:35:07;;;;;;;15.80;10.85;;;;;;;5.94;100.00;92472.44;6303517;22;19999;-75
2024/03/15 01:37:32;;;;;;;15.30;10.25;;;;;;;5.92;100.00;92474.50;6275997;22;20090;-76
2024/03/15 01:39:59;;;;;;;16.90;10.15;;;;;;;5.91;100.00;92465.94;6275791;22;20249;-76
2024/03/15 01:42:24;;;;;;;17.88;10.38;;;;;;;5.91;100.00;92467.78;6302883;22;20255;-76
2024/03/15 01:44:54;;;;;;;15.65;10.10;;;;;;;5.90;100.00;92464.41;6302988;22;20366;-76
2024/03/15 01:47:21;;;;;;;17.67;10.23;;;;;;;5.89;100.00;92460.22;6302719;22;20091;-76
2024/03/15 01:49:48;;;;;;;16.40;10.00;;;;;;;5.91;100.00;92460.75;6302556;22;20003;-76
2024/03/15 01:52:14;;;;;;;16.25;10.10;;;;;;;5.90;100.00;92461.00;6275941;22;20078;-75
2024/03/15 01:54:39;;;;;;;17.67;10.90;;;;;;;5.89;100.00;92457.63;6303473;22;20003;-76
2024/03/15 01:57:08;;;;;;;14.65;9.88;;;;;;;5.85;100.00;92453.97;6303462;22;20357;-76
2024/03/15 01:59:34;;;;;;;16.55;10.32;;;;;;;5.83;100.00;92459.44;6303006;22;20074;-76
2024/03/15 02:02:01;;;;;;;15.73;9.43;;;;;;;5.81;100.00;92452.94;6302933;22;20102;-76
2024/03/15 02:04:27;;;;;;;14.98;9.35;;;;;;;5.80;100.00;92446.19;6302538;22;20041;-75
2024/03/15 02:06:55;;;;;;;13.93;8.95;;;;;;;5.81;100.00;92450.34;6302799;22;20019;-76
2024/03/15 02:09:21;;;;;;;15.07;8.90;;;;;;;5.78;100.00;92449.03;6302506;22;20314;-76
2024/03/15 02:11:47;;;;;;;16.75;9.50;;;;;;;5.80;100.00;92448.78;6303017;22;20019;-76
2024/03/15 02:14:13;;;;;;;13.95;8.73;;;;;;;5.77;100.00;92444.88;6275267;22;20007;-76
2024/03/15 02:16:40;;;;;;;14.48;8.57;;;;;;;5.79;100.00;92447.22;6302823;22;20007;-76
2024/03/15 02:19:06;;;;;;;14.85;8.55;;;;;;;5.78;100.00;92441.22;6275295;22;20023;-75
2024/03/15 02:21:32;;;;;;;13.75;8.35;;;;;;;5.78;100.00;92448.25;6302636;22;20014;-76
2024/03/15 02:23:57;;;;;;;14.73;8.45;;;;;;;5.75;100.00;92439.16;6302336;22;20011;-76
2024/03/15 02:26:23;;;;;;;13.85;7.97;;;;;;;5.73;100.00;92436.03;6302302;22;20098;-75
2024/03/15 02:28:48;;;;;;;13.13;8.35;;;;;;;5.72;100.00;92444.06;6302304;22;20048;-76
2024/03/15 02:31:14;;;;;;;11.95;8.07;;;;;;;5.70;100.00;92440.97;6301966;22;20080;-75
2024/03/15 02:33:39;;;;;;;13.90;8.65;;;;;;;5.67;100.00;92446.66;6275439;22;20036;-75
2024/03/15 02:36:10;;;;;;;10.57;7.28;;;;;;;5.61;100.00;92438.88;6302840;22;20501;-76
2024/03/15 02:38:36;;;;;;;12.48;7.78;;;;;;;5.60;100.00;92439.13;6302868;22;20333;-76
2024/03/15 02:41:04;;;;;;;13.93;6.68;;;;;;;5.58;100.00;92442.00;6302722;22;20006;-75
2024/03/15 02:43:30;;;;;;;10.23;6.72;;;;;;;5.57;100.00;92443.00;6302405;22;20057;-75
2024/03/15 02:45:56;;;;;;;13.40;6.78;;;;;;;5.53;100.00;92441.97;6302607;22;20004;-76
2024/03/15 02:48:21;;;;;;;10.00;6.65;;;;;;;5.52;100.00;92440.41;6302154;22;20394;-76
2024/03/15 02:50:47;;;;;;;11.05;6.72;;;;;;;5.51;100.00;92441.44;6275083;22;20003;-76
2024/03/15 02:53:13;;;;;;;9.60;6.45;;;;;;;5.49;100.00;92442.72;6302599;22;20063;-75
2024/03/15 02:55:39;;;;;;;11.45;6.80;;;;;;;5.45;100.00;92439.06;6302469;22;20072;-77
2024/03/15 02:58:09;;;;;;;12.38;7.95;;;;;;;5.43;100.00;92449.72;6275336;22;20011;-76
2024/03/15 03:00:35;;;;;;;15.27;8.48;;;;;;;5.41;100.00;92449.97;6276545;22;20026;-75
2024/03/15 03:03:00;;;;;;;16.73;8.32;;;;;;;5.40;100.00;92447.63;6302667;22;20003;-76
2024/03/15 03:05:26;;;;;;;11.50;7.47;;;;;;;5.39;100.00;92451.28;6302244;22;20018;-76
2024/03/15 03:07:51;;;;;;;12.18;7.43;;;;;;;5.40;100.00;92445.84;6302121;22;20437;-76
2024/03/15 03:10:17;;;;;;;15.30;8.00;;;;;;;5.38;100.00;92457.47;6301919;22;20015;-75
2024/03/15 03:12:42;;;;;;;15.55;8.60;;;;;;;5.38;100.00;92457.47;6302193;22;20095;-76
2024/03/15 03:15:10;;;;;;;14.68;8.77;;;;;;;5.35;100.00;92456.19;6301985;22;20022;-76
2024/03/15 03:17:35;;;;;;;15.95;8.68;;;;;;;5.37;100.00;92458.53;6302644;22;19999;-75
2024/03/15 03:20:01;;;;;;;13.73;8.88;;;;;;;5.38;100.00;92465.28;6274680;22;20007;-75
2024/03/15 03:22:26;;;;;;;12.70;7.78;;;;;;;5.35;100.00;92465.78;6302285;22;20460;-75
2024/03/15 03:24:52;;;;;;;12.18;7.97;;;;;;;5.34;100.00;92461.66;6302286;22;20098;-76
2024/03/15 03:27:17;;;;;;;9.93;6.88;;;;;;;5.33;100.00;92463.44;6302403;22;20054;-76
2024/03/15 03:29:43;;;;;;;11.23;6.65;;;;;;;5.32;100.00;92459.28;6302042;22;20470;-76
2024/03/15 03:32:08;;;;;;;10.45;6.88;;;;;;;5.32;100.00;92461.13;6302021;22;20007;-74
2024/03/15 03:34:34;;;;;;;11.75;6.68;;;;;;;5.30;100.00;92453.56;6302384;22;20479;-76
2024/03/15 03:36:59;;;;;;;12.10;6.55;;;;;;;5.31;100.00;92462.13;6302116;22;20003;-76
2024/03/15 03:39:25;;;;;;;11.02;6.15;;;;;;;5.28;100.00;92460.06;6302195;22;20011;-75
2024/03/15 03:41:51;;;;;;;10.70;6.38;;;;;;;5.27;100.00;92458.47;6301991;22;20003;-76
2024/03/15 03:44:17;;;;;;;10.93;6.85;;;;;;;5.25;100.00;92456.16;6302507;22;20344;-76
2024/03/15 03:46:43;;;;;;;12.32;7.47;;;;;;;5.24;100.00;92448.63;6302082;22;20513;-76
2024/03/15 03:49:08;;;;;;;12.25;7.88;;;;;;;5.24;100.00;92448.63;6301807;22;20068;-76
2024/03/15 03:51:34;;;;;;;13.18;8.50;;;;;;;5.26;100.00;92454.34;6301650;22;20023;-76
2024/03/15 03:54:00;;;;;;;18.88;8.32;;;;;;;5.30;100.00;92452.81;6301947;22;20213;-76
2024/03/15 03:56:29;;;;;;;11.00;7.60;;;;;;;5.32;100.00;92455.94;6301926;22;20306;-76
2024/03/15 03:58:55;;;;;;;15.40;8.23;;;;;;;5.30;100.00;92447.59;6301544;22;20046;-75
2024/03/15 04:01:20;;;;;;;17.17;8.70;;;;;;;5.34;100.00;92454.63;6302067;22;20321;-76
2024/03/15 04:03:50;;;;;;;14.57;8.88;;;;;;;5.36;100.00;92459.59;6302039;22;20105;-77
2024/03/15 04:06:15;;;;;;;13.98;8.60;;;;;;;5.37;100.00;92458.53;6302179;22;20052;-75
2024/03/15 04:08:41;;;;;;;14.57;8.95;;;;;;;5.39;100.00;92456.47;6274426;22;20022;-75
2024/03/15 04:11:09;;;;;;;13.73;8.00;;;;;;;5.39;100.00;92457.25;6301574;22;20501;-76
2024/03/15 04:13:34;;;;;;;15.45;7.93;;;;;;;5.38;100.00;92454.88;6301603;22;20104;-76
2024/03/15 04:16:01;;;;;;;13.63;8.43;;;;;;;5.38;100.00;92458.28;6301860;22;19999;-76
2024/03/15 04:18:28;;;;;;;13.75;8.13;;;;;;;5.37;100.00;92454.13;6301264;22;20022;-76
2024/03/15 04:20:54;;;;;;;12.10;7.90;;;;;;;5.38;100.00;92454.88;6274391;22;20077;-76
2024/03/15 04:23:22;;;;;;;12.40;8.25;;;;;;;5.37;100.00;92454.13;6301668;22;20011;-76
2024/03/15 04:25:48;;;;;;;13.85;9.30;;;;;;;5.38;100.00;92460.09;6302198;22;20023;-77
2024/03/15 04:28:14;;;;;;;16.05;8.88;;;;;;;5.37;100.00;92454.13;6301927;22;20395;-76
2024/03/15 04:30:40;;;;;;;15.65;9.27;;;;;;;5.39;100.00;92454.63;6274307;22;20010;-75
2024/03/15 04:33:06;;;;;;;13.95;9.18;;;;;;;5.38;100.00;92460.88;6303921;22;20094;-75
2024/03/15 04:35:31;;;;;;;16.30;8.98;;;;;;;5.39;100.00;92461.66;6301315;22;20429;-76
2024/03/15 04:37:57;;;;;;;16.33;8.45;;;;;;;5.41;100.00;92459.59;6301582;22;20023;-76
2024/03/15 04:40:25;;;;;;;18.13;9.77;;;;;;;5.43;100.00;92457.53;6301347;22;20003;-75
2024/03/15 04:42:51;;;;;;;14.68;9.85;;;;;;;5.43;100.00;92457.53;6301614;22;20537;-76
2024/03/15 04:45:17;;;;;;;16.08;9.02;;;;;;;5.45;100.00;92460.66;6301748;22;20003;-76
2024/03/15 04:47:44;;;;;;;15.13;9.35;;;;;;;5.43;100.00;92460.91;6301934;22;20019;-75
2024/03/15 04:50:09;;;;;;;14.32;9.60;;;;;;;5.44;100.00;92459.06;6301686;22;20009;-76
2024/03/15 04:52:40;;;;;;;15.65;9.45;;;;;;;5.43;100.00;92454.94;6302379;22;20039;-75
2024/03/15 04:55:06;;;;;;;15.88;10.07;;;;;;;5.44;100.00;92464.25;6303280;22;20007;-74
2024/03/15 04:57:31;;;;;;;14.63;9.52;;;;;;;5.42;100.00;92456.72;6276012;22;20628;-75
2024/03/15 04:59:57;;;;;;;14.50;9.80;;;;;;;5.40;100.00;92466.59;6303484;22;20043;-76
2024/03/15 05:02:22;;;;;;;12.70;9.02;;;;;;;5.39;100.00;92461.66;6303281;22;20006;-76
2024/03/15 05:04:49;;;;;;;13.55;9.05;;;;;;;5.37;100.00;92466.31;6303423;22;20031;-76
2024/03/15 05:07:15;;;;;;;12.35;7.53;;;;;;;5.38;100.00;92467.88;6304062;22;20028;-76
2024/03/15 05:09:41;;;;;;;13.27;7.88;;;;;;;5.36;100.00;92460.34;6303901;22;20007;-75
2024/03/15 05:12:08;;;;;;;12.55;7.18;;;;;;;5.38;100.00;92457.47;6303525;22;20014;-74
2024/03/15 05:14:33;;;;;;;13.35;8.10;;;;;;;5.37;100.00;92459.31;6303353;22;20064;-76
2024/03/15 05:16:59;;;;;;;14.30;7.68;;;;;;;5.36;100.00;92464.78;6276210;22;20424;-76
2024/03/15 05:19:26;;;;;;;12.68;8.50;;;;;;;5.34;100.00;92464.25;6302926;22;20448;-76
2024/03/15 05:21:51;;;;;;;15.50;8.27;;;;;;;5.34;100.00;92469.44;6302865;22;19999;-76
2024/03/15 05:24:17;;;;;;;17.25;8.70;;;;;;;5.32;100.00;92461.13;6275929;22;20021;-76
2024/03/15 05:26:43;;;;;;;12.30;8.00;;;;;;;5.30;100.00;92463.19;6303414;22;20018;-76
2024/03/15 05:29:09;;;;;;;12.80;7.85;;;;;;;5.28;100.00;92454.88;6303325;22;20090;-76
2024/03/15 05:31:34;;;;;;;12.70;7.60;;;;;;;5.27;100.00;92463.66;6303610;22;20344;-76
2024/03/15 05:34:00;;;;;;;11.93;6.40;;;;;;;5.26;100.00;92455.09;6275819;22;20012;-78
2024/03/15 05:36:26;;;;;;;9.40;6.45;;;;;;;5.26;100.00;92462.91;6278645;22;20377;-77
2024/03/15 05:38:53;;;;;;;9.10;6.35;;;;;;;5.26;100.00;92457.72;6304095;22;20057;-80
2024/03/15 05:41:18;;;;;;;10.95;6.93;;;;;;;5.28;100.00;92465.25;6305042;22;20019;-78
2024/03/15 05:43:44;;;;;;;13.18;7.25;;;;;;;5.30;100.00;92463.19;6305320;22;20360;-78
2024/03/15 05:46:11;;;;;;;12.60;7.65;;;;;;;5.31;100.00;92464.72;6278171;22;20098;-79
2024/03/15 05:48:40;;;;;;;10.18;6.60;;;;;;;5.33;100.00;92460.84;6305506;22;20014;-78
2024/03/15 05:51:06;;;;;;;9.77;5.75;;;;;;;5.35;100.00;92465.78;6305389;22;20034;-78
2024/03/15 05:53:32;;;;;;;9.88;6.30;;;;;;;5.37;100.00;92471.50;6305871;22;20019;-77
2024/03/15 05:55:58;;;;;;;10.35;6.53;;;;;;;5.40;100.00;92468.41;6305858;22;20010;-78
2024/03/15 05:58:24;;;;;;;11.70;6.90;;;;;;;5.42;100.00;92468.94;6305871;22;20274;-77
2024/03/15 06:00:49;;;;;;;11.88;5.75;;;;;;;5.46;100.00;92475.19;6305571;22;20006;-77
2024/03/15 06:03:16;;;;;;;9.10;5.90;;;;;;;5.50;100.00;92473.63;6306198;22;20041;-76
2024/03/15 06:05:42;;;;;;;9.82;5.78;;;;;;;5.55;100.00;92483.25;6305068;22;19999;-79
2024/03/15 06:08:10;;;;;;;9.02;6.10;;;;;;;5.61;100.00;92484.84;6303455;22;20056;-77
2024/03/15 06:10:36;;;;;;;10.43;6.80;;;;;;;5.66;100.00;92471.88;6306204;22;20003;-78
2024/03/15 06:13:02;;;;;;;11.77;7.15;;;;;;;5.73;100.00;92484.63;6305313;22;20046;-76
2024/03/15 06:15:28;;;;;;;13.18;7.15;;;;;;;5.78;100.00;92482.78;6304134;22;20421;-77
2024/03/15 06:17:53;;;;;;;11.95;7.40;;;;;;;5.86;100.00;92485.94;6304243;22;20007;-77
2024/03/15 06:20:19;;;;;;;9.32;6.65;;;;;;;5.92;100.00;92485.72;6274897;22;20006;-76
2024/03/15 06:22:45;;;;;;;9.45;6.63;;;;;;;6.00;100.00;92487.81;6302608;22;20389;-76
2024/03/15 06:25:11;;;;;;;13.52;7.10;;;;;;;6.04;100.00;92486.25;6302792;22;20094;-76
2024/03/15 06:27:39;;;;;;;11.77;7.32;;;;;;;6.10;100.00;92489.63;6302930;22;20501;-76
2024/03/15 06:30:07;;;;;;;12.65;7.63;;;;;;;6.16;100.00;92490.44;6302774;22;20304;-77
2024/03/15 06:32:36;;;;;;;10.50;7.13;;;;;;;6.22;100.00;92485.00;6303379;22;20093;-76
2024/03/15 06:35:17;;;;;;;11.88;7.90;;;;;;;6.29;100.00;92487.34;6303553;22;20076;-77
2024/03/15 06:37:44;;;;;;;12.38;7.53;;;;;;;6.34;100.00;92482.13;6302900;22;20019;-77
2024/03/15 06:40:18;;;;;;;15.57;7.88;;;;;;;6.45;100.00;92482.91;6274939;22;20003;-75
2024/03/15 06:48:17;;;;;;;15.75;7.35;;;;;;;6.75;100.00;92482.09;6302283;22;20015;-76
2024/03/15 06:51:00;;;;;;;12.60;7.22;;;;;;;6.84;100.00;92488.34;6303082;22;20015;-76
2024/03/15 06:53:26;;;;;;;;;;;;;;;6.92;100.00;92491.47;6303394;22;20011;-77
2024/03/15 06:55:51;;;;;;;9.48;6.43;;;;;;;7.00;100.00;92493.53;6303130;22;19907;-77
2024/03/15 06:58:17;;;;;;;11.43;7.35;;;;;;;7.07;100.00;92497.44;6302966;22;20018;-76
2024/03/15 07:00:43;;;;;;;10.20;6.50;;;;;;;7.16;100.00;92497.69;6302469;22;20006;-77
2024/03/15 07:03:09;;;;;;;15.25;7.10;;;;;;;7.28;100.00;92495.53;6302286;22;20022;-76
2024/03/15 07:05:35;;;;;;;10.98;7.25;;;;;;;7.45;100.00;92499.66;6302254;22;20004;-76
2024/03/15 07:08:01;;;;;;;9.90;7.40;;;;;;;7.64;100.00;92497.25;6302508;22;20064;-78
2024/03/15 07:10:26;;;;;;;12.35;7.25;;;;;;;7.78;100.00;92500.84;6303392;22;20010;-77
2024/03/15 07:12:52;;;;;;;10.73;7.65;;;;;;;7.95;100.00;92500.50;6303134;22;20022;-77
2024/03/15 07:15:18;;;;;;;12.32;7.75;;;;;;;8.23;100.00;92503.47;6302327;22;20076;-77
2024/03/15 07:17:44;;;;;;;10.98;7.00;;;;;;;8.60;100.00;92497.75;6302763;22;20076;-75
2024/03/15 07:20:12;;;;;;;11.18;7.40;;;;;;;9.14;100.00;92509.03;6302662;22;20004;-75
2024/03/15 07:22:42;;;;;;;14.27;7.72;;;;;;;9.57;100.00;92503.91;6276135;22;20019;-77
2024/03/15 07:25:10;;;;;;;12.10;7.28;;;;;;;10.03;100.00;92502.56;6303322;22;20065;-77
2024/03/15 07:27:38;;;;;;;12.23;6.22;;;;;;;10.35;100.00;92499.25;6303356;22;20015;-77
2024/03/15 07:30:05;;;;;;;14.57;6.38;;;;;;;10.54;100.00;92500.03;6303212;22;20044;-78
2024/03/15 07:32:31;;;;;;;11.85;6.43;;;;;;;10.53;100.00;92495.84;6303637;22;20026;-76
2024/03/15 07:34:56;;;;;;;11.90;6.15;;;;;;;10.58;100.00;92501.03;6275518;22;20003;-77
2024/03/15 07:37:22;;;;;;;11.00;6.07;;;;;;;10.54;100.00;92502.66;6303533;22;20053;-77
2024/03/15 07:39:48;;;;;;;13.70;6.97;;;;;;;10.21;100.00;92501.78;6304027;22;20078;-77
2024/03/15 07:42:14;;;;;;;14.38;7.13;;;;;;;9.95;100.00;92498.72;6304328;22;20116;-78
2024/03/15 07:44:40;;;;;;;12.82;6.95;;;;;;;9.79;100.00;92505.97;6276321;22;20037;-77
2024/03/15 07:47:06;;;;;;;12.75;7.72;;;;;;;9.40;100.00;92511.41;6303470;22;20081;-78
2024/03/15 07:49:32;;;;;;;11.35;6.50;;;;;;;9.44;100.00;92515.03;6302761;22;20011;-78
2024/03/15 07:51:58;;;;;;;13.05;7.35;;;;;;;9.38;100.00;92515.06;6276078;22;20011;-78
2024/03/15 07:54:23;;;;;;;10.77;6.70;;;;;;;9.28;100.00;92515.16;6302968;22;20141;-78
2024/03/15 07:56:49;;;;;;;14.43;7.88;;;;;;;9.37;100.00;92513.50;6302706;22;20089;-77
2024/03/15 07:59:15;;;;;;;12.15;7.13;;;;;;;9.40;100.00;92511.41;6303014;22;20052;-77
2024/03/15 08:01:43;;;;;;;7.90;5.72;;;;;;;9.44;100.00;92515.03;6303036;22;20333;-76
2024/03/15 08:04:09;;;;;;;7.05;4.88;;;;;;;9.40;100.00;92519.22;6303679;22;20003;-76
2024/03/15 08:06:38;;;;;;;9.65;6.10;;;;;;;9.20;100.00;92517.59;6303513;22;20023;-76
2024/03/15 08:09:05;;;;;;;10.60;6.97;;;;;;;9.16;100.00;92528.59;6303078;22;20091;-77
2024/03/15 08:11:33;;;;;;;9.90;6.82;;;;;;;9.17;100.00;92519.72;6302886;22;20015;-77
2024/03/15 08:14:08;;;;;;;11.98;6.75;;;;;;;9.27;100.00;92526.66;6303259;22;20074;-77
2024/03/15 08:16:33;;;;;;;14.38;8.50;;;;;;;9.27;100.00;92524.03;6302706;22;20011;-77
2024/03/15 08:19:04;;;;;;;14.15;7.93;;;;;;;9.29;100.00;92535.00;6302958;22;19999;-77
2024/03/15 08:21:30;;;;;;;11.85;7.97;;;;;;;9.07;100.00;92532.06;6303218;22;20069;-77
2024/03/15 08:23:57;;;;;;;13.00;8.52;;;;;;;9.12;100.00;92534.66;6302610;22;20015;-76
2024/03/15 08:26:22;;;;;;;13.80;7.82;;;;;;;9.29;100.00;92532.38;6303666;22;20019;-77
2024/03/15 08:28:51;;;;;;;16.90;10.05;;;;;;;9.38;100.00;92535.94;6305194;22;19999;-76
2024/03/15 08:31:16;;;;;;;13.80;9.10;;;;;;;9.43;100.00;92531.72;6305012;22;20491;-77
2024/03/15 08:33:44;;;;;;;17.42;8.38;;;;;;;9.48;100.00;92536.91;6304976;22;20007;-77
2024/03/15 08:36:10;;;;;;;14.85;8.82;;;;;;;9.35;100.00;92533.91;6277698;22;20444;-77
2024/03/15 08:38:37;;;;;;;8.38;6.18;;;;;;;9.16;100.00;92539.06;6304496;22;20082;-76
2024/03/15 08:41:03;;;;;;;15.52;11.15;;;;;;;8.93;100.00;92542.38;6304707;22;20038;-78
2024/03/15 08:43:29;;;;;;;21.88;12.18;;;;;;;8.78;100.00;92540.69;6305254;22;20454;-77
2024/03/15 08:45:55;;;;;;;17.50;12.18;;;;;;;8.72;100.00;92537.31;6304742;22;20022;-75
2024/03/15 08:48:20;;;;;;;20.30;13.13;;;;;;;8.76;100.00;92545.41;6304513;22;20493;-77
2024/03/15 08:50:48;;;;;;;18.42;9.60;;;;;;;9.03;100.00;92544.13;6304753;22;20015;-77
2024/03/15 08:53:14;;;;;;;23.48;13.45;;;;;;;9.11;100.00;92543.53;6305058;22;20489;-77
2024/03/15 08:55:41;;;;;;;19.83;11.68;;;;;;;9.25;100.00;92554.09;6304595;22;20039;-77
2024/03/15 08:58:08;;;;;;;22.52;12.68;;;;;;;9.41;100.00;92554.75;6304987;22;20235;-76
2024/03/15 09:00:34;;;;;;;22.25;13.93;;;;;;;9.65;100.00;92557.38;6304873;22;20089;-76
2024/03/15 09:02:59;;;;;;;21.55;13.88;;;;;;;9.79;100.00;92548.59;6305360;22;20068;-77
2024/03/15 09:05:25;;;;;;;23.15;13.88;;;;;;;9.96;100.00;92553.34;6277344;22;20015;-78
2024/03/15 09:07:50;;;;;;;22.30;11.63;;;;;;;10.30;100.00;92546.44;6304860;22;20441;-78
2024/03/15 09:10:16;;;;;;;22.90;14.00;;;;;;;10.29;100.00;92544.84;6304529;22;20022;-76
2024/03/15 09:12:45;;;;;;;20.40;13.95;;;;;;;9.91;100.00;92548.19;6305345;22;20004;-76
2024/03/15 09:15:12;;;;;;;25.00;13.55;;;;;;;9.81;100.00;92545.69;6305493;22;20018;-76
2024/03/15 09:17:41;;;;;;;24.17;14.38;;;;;;;9.78;100.00;92536.56;6304855;22;20429;-77
2024/03/15 09:20:42;;;;;;;20.50;12.30;;;;;;;9.83;100.00;92542.81;6303984;22;20348;-77
2024/03/15 09:23:02;;;;;;;21.58;13.18;;;;;;;9.84;100.00;92544.34;6300331;22;20468;-77
2024/03/15 09:25:30;;;;;;;24.52;14.48;;;;;;;10.11;100.00;92548.97;6304240;22;20018;-76
2024/03/15 09:27:57;;;;;;;21.50;13.05;;;;;;;10.17;100.00;92545.25;6304645;22;20374;-77
2024/03/15 09:30:27;;;;;;;20.05;11.73;;;;;;;10.39;100.00;92547.34;6277268;22;20022;-78
2024/03/15 09:32:59;;;;;;;22.75;12.95;;;;;;;10.59;100.00;92541.81;6305558;22;20038;-77
2024/03/15 09:35:25;;;;;;;19.05;12.40;;;;;;;10.70;100.00;92546.94;6305080;22;20397;-78
2024/03/15 09:37:51;;;;;;;23.55;12.98;;;;;;;10.81;100.00;92541.25;6304379;22;20433;-77
2024/03/15 09:40:23;;;;;;;13.63;8.48;;;;;;;10.63;100.00;92536.81;6304211;22;20007;-77
2024/03/15 09:42:51;;;;;;;17.20;8.00;;;;;;;10.38;100.00;92553.63;6304337;22;20007;-77
2024/03/15 09:45:17;;;;;;;17.40;12.52;;;;;;;10.75;100.00;92542.38;6304042;22;20003;-77
2024/03/15 09:47:45;;;;;;;20.10;11.32;;;;;;;11.49;100.00;92554.03;6304103;22;20015;-76
2024/03/15 09:50:18;;;;;;;22.52;13.63;;;;;;;11.93;100.00;92557.97;6303648;22;20498;-77
2024/03/15 09:52:44;;;;;;;24.58;12.23;;;;;;;11.98;100.00;92560.47;6304231;22;20463;-78
2024/03/15 09:55:16;;;;;;;17.27;12.07;;;;;;;11.85;100.00;92549.69;6276892;22;20000;-77
2024/03/15 09:57:46;;;;;;;19.60;12.77;;;;;;;11.86;100.00;92556.47;6304381;22;20407;-76
2024/03/15 10:00:17;;;;;;;16.98;9.32;;;;;;;12.08;100.00;92550.56;6304178;22;20207;-76
2024/03/15 10:02:47;;;;;;;18.45;11.93;;;;;;;11.88;100.00;92562.22;6304536;22;20023;-78
2024/03/15 10:05:17;;;;;;;22.88;11.50;;;;;;;11.78;100.00;92564.25;6304393;22;20011;-77
2024/03/15 10:07:43;;;;;;;16.55;10.23;;;;;;;11.82;100.00;92560.75;6304324;22;20094;-76
2024/03/15 10:10:13;;;;;;;19.95;11.95;;;;;;;11.48;100.00;92560.31;6303777;22;20395;-77
2024/03/15 10:12:39;;;;;;;17.13;11.10;;;;;;;11.20;100.00;92560.28;6304881;22;20015;-76
2024/03/15 10:15:10;;;;;;;16.52;10.23;;;;;;;11.14;100.00;92558.81;6304385;22;20042;-77
2024/03/15 10:17:40;;;;;;;15.45;10.13;;;;;;;11.29;100.00;92555.16;6304085;22;20325;-77
2024/03/15 10:20:26;;;;;;;18.73;11.00;;;;;;;11.13;100.00;92558.03;6304241;22;20546;-77
2024/03/15 10:22:58;;;;;;;16.83;9.43;;;;;;;11.10;100.00;92560.44;6276759;22;20532;-77
2024/03/15 10:25:25;;;;;;;9.02;5.75;;;;;;;11.07;100.00;92561.78;6304322;22;20040;-77
2024/03/15 10:27:55;;;;;;;16.80;9.10;;;;;;;10.88;100.00;92572.31;6276518;22;20018;-76
2024/03/15 10:30:25;;;;;;;15.35;8.00;;;;;;;10.71;100.00;92567.56;6304377;22;20034;-78
2024/03/15 10:32:53;;;;;;;17.55;8.70;;;;;;;10.69;100.00;92563.69;6304510;22;20046;-77
2024/03/15 10:35:20;;;;;;;15.20;7.90;;;;;;;10.51;100.00;92573.88;6303934;22;20027;-76
2024/03/15 10:37:47;;;;;;;13.52;8.43;;;;;;;10.18;100.00;92584.22;6304478;22;20015;-76
2024/03/15 10:40:15;;;;;;;17.10;8.63;;;;;;;10.15;100.00;92576.91;6304285;22;20340;-77
2024/03/15 10:42:48;;;;;;;15.50;8.32;;;;;;;10.26;100.00;92580.19;6304815;22;20015;-77
2024/03/15 10:45:21;;;;;;;17.55;9.20;;;;;;;10.39;100.00;92568.28;6304688;22;20015;-77
2024/03/15 10:47:47;;;;;;;14.35;8.05;;;;;;;10.46;100.00;92575.78;6304749;22;20383;-78
2024/03/15 10:50:15;;;;;;;18.42;7.28;;;;;;;10.38;100.00;92574.56;6303167;22;20014;-77
2024/03/15 10:52:43;;;;;;;13.27;8.60;;;;;;;10.25;100.00;92576.03;6304485;22;20015;-77
2024/03/15 10:55:29;;;;;;;15.32;8.45;;;;;;;10.38;100.00;92570.13;6304763;22;20157;-79
2024/03/15 10:57:58;;;;;;;10.75;6.55;;;;;;;10.47;100.00;92572.09;6304501;22;20064;-77
2024/03/15 11:00:26;;;;;;;9.70;5.63;;;;;;;10.49;100.00;92570.78;6303739;22;20001;-77
2024/03/15 11:02:54;;;;;;;17.95;9.57;;;;;;;10.41;100.00;92576.63;6303728;22;20018;-77
2024/03/15 11:05:25;;;;;;;15.40;8.63;;;;;;;10.53;100.00;92573.59;6303850;22;20433;-78
2024/03/15 11:08:02;;;;;;;17.48;9.70;;;;;;;10.46;100.00;92571.31;6303413;22;20018;-77
2024/03/15 11:10:29;;;;;;;15.73;10.45;;;;;;;10.52;100.00;92579.91;6275877;22;20030;-77
2024/03/15 11:12:58;;;;;;;14.52;6.82;;;;;;;10.73;100.00;92564.69;6275792;22;20026;-77
2024/03/15 11:15:23;;;;;;;17.50;9.43;;;;;;;10.62;100.00;92572.66;6303391;22;20011;-77
2024/03/15 11:18:03;;;;;;;13.85;9.25;;;;;;;10.81;100.00;92564.03;6275762;22;20531;-77
2024/03/15 11:20:49;;;;;;;14.80;8.57;;;;;;;11.00;100.00;92561.38;6303267;22;20030;-77
2024/03/15 11:23:17;;;;;;;14.32;8.70;;;;;;;11.02;100.00;92554.78;6276078;22;20404;-76
2024/03/15 11:26:01;;;;;;;14.95;8.77;;;;;;;10.93;100.00;92559.13;6302923;22;20456;-76
2024/03/15 11:28:31;;;;;;;17.83;9.57;;;;;;;10.95;100.00;92562.25;6302804;22;20022;-77